sensor_id;sensor_type;location;lat;lon;timestamp;pressure;altitude;pressure_sealevel;temperature;humidity
6090;BME280;3073;42.660;23.316;2023-02-08T00:00:26;96030.34;;;-5.01;100.00
6090;BME280;3073;42.660;23.316;2023-02-08T00:02:52;96035.53;;;-5.04;100.00
6090;BME280;3073;42.660;23.316;2023-02-08T00:05:19;96046.97;;;-5.02;100.00
6090;BME280;3073;42.660;23.316;2023-02-08T00:07:46;96038.31;;;-5.09;100.00
6090;BME280;3073;42.660;23.316;2023-02-08T00:10:13;96044.91;;;-5.08;100.00
6090;BME280;3073;42.660;23.316;2023-02-08T00:12:40;96044.69;;;-5.05;100.00
6090;BME280;3073;42.660;23.316;2023-02-08T00:15:22;96043.41;;;-5.10;100.00
6090;BME280;3073;42.660;23.316;2023-02-08T00:17:53;96056.72;;;-4.99;100.00
6090;BME280;3073;42.660;23.316;2023-02-08T00:20:20;96053.00;;;-4.93;100.00
6090;BME280;3073;42.660;23.316;2023-02-08T00:22:47;96053.31;;;-4.85;100.00
6090;BME280;3073;42.660;23.316;2023-02-08T00:25:14;96054.22;;;-4.99;100.00
6090;BME280;3073;42.660;23.316;2023-02-08T00:27:41;96056.75;;;-4.75;100.00
6090;BME280;3073;42.660;23.316;2023-02-08T00:30:08;96053.34;;;-4.61;100.00
6090;BME280;3073;42.660;23.316;2023-02-08T00:32:36;96050.31;;;-4.78;100.00
6090;BME280;3073;42.660;23.316;2023-02-08T00:35:04;96063.13;;;-4.71;100.00
6090;BME280;3073;42.660;23.316;2023-02-08T00:37:31;96064.69;;;-4.70;100.00
6090;BME280;3073;42.660;23.316;2023-02-08T00:39:58;96067.31;;;-4.72;100.00
6090;BME280;3073;42.660;23.316;2023-02-08T00:42:27;96075.03;;;-4.63;100.00
6090;BME280;3073;42.660;23.316;2023-02-08T00:44:54;96081.94;;;-4.67;100.00
6090;BME280;3073;42.660;23.316;2023-02-08T00:47:21;96077.72;;;-4.54;100.00
6090;BME280;3073;42.660;23.316;2023-02-08T00:49:48;96081.94;;;-4.43;100.00
6090;BME280;3073;42.660;23.316;2023-02-08T00:52:17;96082.06;;;-4.45;100.00
6090;BME280;3073;42.660;23.316;2023-02-08T00:54:44;96083.59;;;-4.55;100.00
6090;BME280;3073;42.660;23.316;2023-02-08T00:57:11;96082.25;;;-4.72;100.00
6090;BME280;3073;42.660;23.316;2023-02-08T00:59:38;96082.88;;;-4.81;100.00
6090;BME280;3073;42.660;23.316;2023-02-08T01:02:05;96082.66;;;-4.78;100.00
6090;BME280;3073;42.660;23.316;2023-02-08T01:04:32;96083.34;;;-4.76;100.00
6090;BME280;3073;42.660;23.316;2023-02-08T01:06:59;96088.88;;;-4.59;100.00
6090;BME280;3073;42.660;23.316;2023-02-08T01:09:27;96082.78;;;-4.55;100.00
6090;BME280;3073;42.660;23.316;2023-02-08T01:12:05;96088.75;;;-4.82;100.00
6090;BME280;3073;42.660;23.316;2023-02-08T01:14:32;96091.91;;;-4.80;100.00
6090;BME280;3073;42.660;23.316;2023-02-08T01:16:59;96091.03;;;-4.91;100.00
6090;BME280;3073;42.660;23.316;2023-02-08T01:19:26;96093.97;;;-4.74;100.00
6090;BME280;3073;42.660;23.316;2023-02-08T01:21:53;96089.06;;;-4.62;100.00
6090;BME280;3073;42.660;23.316;2023-02-08T01:24:19;96084.22;;;-4.77;100.00
6090;BME280;3073;42.660;23.316;2023-02-08T01:26:48;96075.25;;;-4.67;100.00
6090;BME280;3073;42.660;23.316;2023-02-08T01:29:15;96078.81;;;-4.58;100.00
6090;BME280;3073;42.660;23.316;2023-02-08T01:31:43;96079.25;;;-4.64;100.00
6090;BME280;3073;42.660;23.316;2023-02-08T01:34:11;96079.63;;;-4.70;100.00
6090;BME280;3073;42.660;23.316;2023-02-08T01:36:38;96078.16;;;-4.73;100.00
6090;BME280;3073;42.660;23.316;2023-02-08T01:39:06;96080.59;;;-4.84;100.00
6090;BME280;3073;42.660;23.316;2023-02-08T01:41:35;96077.47;;;-4.75;100.00
6090;BME280;3073;42.660;23.316;2023-02-08T01:44:07;96076.13;;;-4.55;100.00
6090;BME280;3073;42.660;23.316;2023-02-08T01:46:35;96080.88;;;-4.52;100.00
6090;BME280;3073;42.660;23.316;2023-02-08T01:49:06;96074.97;;;-4.38;100.00
6090;BME280;3073;42.660;23.316;2023-02-08T01:51:38;96078.75;;;-4.45;100.00
6090;BME280;3073;42.660;23.316;2023-02-08T01:54:08;96078.94;;;-4.72;100.00
6090;BME280;3073;42.660;23.316;2023-02-08T01:56:39;96076.41;;;-4.59;100.00
6090;BME280;3073;42.660;23.316;2023-02-08T01:59:12;96091.41;;;-4.72;100.00
6090;BME280;3073;42.660;23.316;2023-02-08T02:01:41;96091.56;;;-4.62;100.00
6090;BME280;3073;42.660;23.316;2023-02-08T02:04:08;96084.16;;;-4.51;100.00
6090;BME280;3073;42.660;23.316;2023-02-08T02:06:38;96094.59;;;-4.46;100.00
6090;BME280;3073;42.660;23.316;2023-02-08T02:09:11;96096.88;;;-4.43;100.00
6090;BME280;3073;42.660;23.316;2023-02-08T02:11:40;96098.72;;;-4.58;100.00
6090;BME280;3073;42.660;23.316;2023-02-08T02:14:10;96090.84;;;-4.52;100.00
6090;BME280;3073;42.660;23.316;2023-02-08T02:16:37;96096.63;;;-4.51;100.00
6090;BME280;3073;42.660;23.316;2023-02-08T02:19:07;96107.69;;;-4.55;100.00
6090;BME280;3073;42.660;23.316;2023-02-08T02:21:50;96107.84;;;-4.46;100.00
6090;BME280;3073;42.660;23.316;2023-02-08T02:24:52;96117.09;;;-4.72;100.00
6090;BME280;3073;42.660;23.316;2023-02-08T02:27:33;96114.31;;;-4.67;100.00
6090;BME280;3073;42.660;23.316;2023-02-08T02:30:38;96126.41;;;-4.62;100.00
6090;BME280;3073;42.660;23.316;2023-02-08T02:33:24;96129.00;;;-4.51;100.00
6090;BME280;3073;42.660;23.316;2023-02-08T02:35:57;96122.06;;;-4.72;100.00
6090;BME280;3073;42.660;23.316;2023-02-08T02:38:39;96124.66;;;-4.73;100.00
6090;BME280;3073;42.660;23.316;2023-02-08T02:41:14;96126.22;;;-4.59;100.00
6090;BME280;3073;42.660;23.316;2023-02-08T02:44:09;96131.88;;;-4.94;100.00
6090;BME280;3073;42.660;23.316;2023-02-08T02:46:42;96128.25;;;-4.77;100.00
6090;BME280;3073;42.660;23.316;2023-02-08T02:49:16;96129.44;;;-4.83;100.00
6090;BME280;3073;42.660;23.316;2023-02-08T02:51:52;96127.31;;;-4.63;100.00
6090;BME280;3073;42.660;23.316;2023-02-08T02:54:24;96129.03;;;-4.64;100.00
6090;BME280;3073;42.660;23.316;2023-02-08T02:56:57;96120.75;;;-4.64;100.00
6090;BME280;3073;42.660;23.316;2023-02-08T02:59:26;96130.19;;;-4.57;100.00
6090;BME280;3073;42.660;23.316;2023-02-08T03:01:54;96133.56;;;-4.45;100.00
6090;BME280;3073;42.660;23.316;2023-02-08T03:04:47;96128.66;;;-4.47;100.00
6090;BME280;3073;42.660;23.316;2023-02-08T03:07:21;96135.56;;;-4.63;100.00
6090;BME280;3073;42.660;23.316;2023-02-08T03:10:01;96138.50;;;-4.82;100.00
6090;BME280;3073;42.660;23.316;2023-02-08T03:12:38;96140.88;;;-4.80;100.00
6090;BME280;3073;42.660;23.316;2023-02-08T03:15:15;96143.66;;;-4.72;100.00
6090;BME280;3073;42.660;23.316;2023-02-08T03:17:57;96136.28;;;-4.74;100.00
6090;BME280;3073;42.660;23.316;2023-02-08T03:20:31;96148.34;;;-4.68;100.00
6090;BME280;3073;42.660;23.316;2023-02-08T03:23:06;96134.19;;;-4.54;100.00
6090;BME280;3073;42.660;23.316;2023-02-08T03:25:43;96133.09;;;-4.50;100.00
6090;BME280;3073;42.660;23.316;2023-02-08T03:28:19;96125.19;;;-4.57;100.00
6090;BME280;3073;42.660;23.316;2023-02-08T03:30:52;96119.66;;;-4.73;100.00
6090;BME280;3073;42.660;23.316;2023-02-08T03:33:27;96120.78;;;-4.90;100.00
6090;BME280;3073;42.660;23.316;2023-02-08T03:36:02;96117.53;;;-5.03;100.00
6090;BME280;3073;42.660;23.316;2023-02-08T03:38:34;96126.47;;;-4.88;100.00
6090;BME280;3073;42.660;23.316;2023-02-08T03:41:03;96131.47;;;-4.88;100.00
6090;BME280;3073;42.660;23.316;2023-02-08T03:43:34;96125.50;;;-4.98;100.00
6090;BME280;3073;42.660;23.316;2023-02-08T03:46:07;96135.44;;;-4.85;100.00
6090;BME280;3073;42.660;23.316;2023-02-08T03:48:38;96134.84;;;-4.89;100.00
6090;BME280;3073;42.660;23.316;2023-02-08T03:51:08;96136.63;;;-5.03;100.00
6090;BME280;3073;42.660;23.316;2023-02-08T03:53:36;96137.56;;;-5.17;100.00
6090;BME280;3073;42.660;23.316;2023-02-08T03:56:07;96141.91;;;-4.95;100.00
6090;BME280;3073;42.660;23.316;2023-02-08T03:58:39;96140.41;;;-4.98;100.00
6090;BME280;3073;42.660;23.316;2023-02-08T04:01:14;96133.63;;;-4.96;100.00
6090;BME280;3073;42.660;23.316;2023-02-08T04:03:42;96139.81;;;-5.01;100.00
6090;BME280;3073;42.660;23.316;2023-02-08T04:06:12;96141.63;;;-4.91;100.00
6090;BME280;3073;42.660;23.316;2023-02-08T04:08:39;96142.50;;;-4.92;100.00
6090;BME280;3073;42.660;23.316;2023-02-08T04:11:06;96146.38;;;-4.88;100.00
6090;BME280;3073;42.660;23.316;2023-02-08T04:13:33;96152.03;;;-4.86;100.00
6090;BME280;3073;42.660;23.316;2023-02-08T04:15:59;96157.75;;;-4.84;100.00
6090;BME280;3073;42.660;23.316;2023-02-08T04:18:27;96161.00;;;-4.71;100.00
6090;BME280;3073;42.660;23.316;2023-02-08T04:20:54;96157.13;;;-4.75;100.00
6090;BME280;3073;42.660;23.316;2023-02-08T04:23:22;96160.28;;;-4.73;100.00
6090;BME280;3073;42.660;23.316;2023-02-08T04:25:52;96161.47;;;-4.65;100.00
6090;BME280;3073;42.660;23.316;2023-02-08T04:28:19;96166.16;;;-4.74;100.00
6090;BME280;3073;42.660;23.316;2023-02-08T04:30:46;96162.09;;;-4.75;100.00
6090;BME280;3073;42.660;23.316;2023-02-08T04:33:13;96157.13;;;-4.75;100.00
6090;BME280;3073;42.660;23.316;2023-02-08T04:35:40;96160.50;;;-4.76;100.00
6090;BME280;3073;42.660;23.316;2023-02-08T04:38:08;96163.50;;;-4.83;100.00
6090;BME280;3073;42.660;23.316;2023-02-08T04:40:36;96170.69;;;-4.91;100.00
6090;BME280;3073;42.660;23.316;2023-02-08T04:43:03;96167.69;;;-4.96;100.00
6090;BME280;3073;42.660;23.316;2023-02-08T04:45:30;96163.41;;;-4.94;100.00
6090;BME280;3073;42.660;23.316;2023-02-08T04:47:57;96167.69;;;-5.09;100.00
6090;BME280;3073;42.660;23.316;2023-02-08T04:50:26;96162.25;;;-5.53;100.00
6090;BME280;3073;42.660;23.316;2023-02-08T04:52:52;96168.56;;;-5.48;100.00
6090;BME280;3073;42.660;23.316;2023-02-08T04:55:19;96169.03;;;-5.43;100.00
6090;BME280;3073;42.660;23.316;2023-02-08T04:57:47;96173.03;;;-5.40;100.00
6090;BME280;3073;42.660;23.316;2023-02-08T05:00:15;96177.72;;;-5.36;100.00
6090;BME280;3073;42.660;23.316;2023-02-08T05:02:42;96192.44;;;-5.20;100.00
6090;BME280;3073;42.660;23.316;2023-02-08T05:05:09;96202.63;;;-5.10;100.00
6090;BME280;3073;42.660;23.316;2023-02-08T05:07:35;96212.25;;;-5.06;100.00
6090;BME280;3073;42.660;23.316;2023-02-08T05:10:02;96219.53;;;-5.03;100.00
6090;BME280;3073;42.660;23.316;2023-02-08T05:12:29;96217.16;;;-5.04;100.00
6090;BME280;3073;42.660;23.316;2023-02-08T05:14:58;96218.66;;;-5.02;100.00
6090;BME280;3073;42.660;23.316;2023-02-08T05:17:25;96223.09;;;-5.07;100.00
6090;BME280;3073;42.660;23.316;2023-02-08T05:19:52;96221.41;;;-5.06;100.00
6090;BME280;3073;42.660;23.316;2023-02-08T05:22:19;96222.59;;;-5.12;100.00
6090;BME280;3073;42.660;23.316;2023-02-08T05:24:46;96223.81;;;-5.17;100.00
6090;BME280;3073;42.660;23.316;2023-02-08T05:27:12;96226.91;;;-5.14;100.00
6090;BME280;3073;42.660;23.316;2023-02-08T05:29:39;96223.59;;;-5.14;100.00
6090;BME280;3073;42.660;23.316;2023-02-08T05:32:08;96228.19;;;-5.08;100.00
6090;BME280;3073;42.660;23.316;2023-02-08T05:34:39;96225.59;;;-5.07;100.00
6090;BME280;3073;42.660;23.316;2023-02-08T05:37:06;96233.44;;;-5.13;100.00
6090;BME280;3073;42.660;23.316;2023-02-08T05:39:32;96233.97;;;-5.08;100.00
6090;BME280;3073;42.660;23.316;2023-02-08T05:41:59;96234.78;;;-5.07;100.00
6090;BME280;3073;42.660;23.316;2023-02-08T05:44:26;96239.13;;;-5.11;100.00
6090;BME280;3073;42.660;23.316;2023-02-08T05:46:53;96240.09;;;-5.26;100.00
6090;BME280;3073;42.660;23.316;2023-02-08T05:49:21;96239.41;;;-5.15;100.00
6090;BME280;3073;42.660;23.316;2023-02-08T05:51:48;96246.91;;;-5.03;100.00
6090;BME280;3073;42.660;23.316;2023-02-08T05:54:15;96247.50;;;-5.12;100.00
6090;BME280;3073;42.660;23.316;2023-02-08T05:56:42;96251.59;;;-4.98;100.00
6090;BME280;3073;42.660;23.316;2023-02-08T05:59:09;96250.59;;;-4.96;100.00
6090;BME280;3073;42.660;23.316;2023-02-08T06:01:36;96253.28;;;-4.99;100.00
6090;BME280;3073;42.660;23.316;2023-02-08T06:04:03;96251.88;;;-5.03;100.00
6090;BME280;3073;42.660;23.316;2023-02-08T06:06:32;96248.16;;;-5.23;100.00
6090;BME280;3073;42.660;23.316;2023-02-08T06:09:02;96245.41;;;-5.18;100.00
6090;BME280;3073;42.660;23.316;2023-02-08T06:11:29;96241.50;;;-5.22;100.00
6090;BME280;3073;42.660;23.316;2023-02-08T06:13:56;96241.56;;;-5.36;100.00
6090;BME280;3073;42.660;23.316;2023-02-08T06:16:22;96251.06;;;-5.16;100.00
6090;BME280;3073;42.660;23.316;2023-02-08T06:18:49;96246.09;;;-5.16;100.00
6090;BME280;3073;42.660;23.316;2023-02-08T06:21:16;96241.72;;;-5.00;100.00
6090;BME280;3073;42.660;23.316;2023-02-08T06:23:44;96257.38;;;-4.98;100.00
6090;BME280;3073;42.660;23.316;2023-02-08T06:26:11;96249.78;;;-5.09;100.00
6090;BME280;3073;42.660;23.316;2023-02-08T06:28:38;96251.38;;;-4.95;100.00
6090;BME280;3073;42.660;23.316;2023-02-08T06:31:05;96254.56;;;-4.93;100.00
6090;BME280;3073;42.660;23.316;2023-02-08T06:33:31;96260.16;;;-4.52;100.00
6090;BME280;3073;42.660;23.316;2023-02-08T06:35:58;96263.00;;;-4.07;100.00
6090;BME280;3073;42.660;23.316;2023-02-08T06:38:25;96265.09;;;-3.78;100.00
6090;BME280;3073;42.660;23.316;2023-02-08T06:40:54;96261.63;;;-3.51;100.00
6090;BME280;3073;42.660;23.316;2023-02-08T06:43:21;96261.56;;;-3.63;100.00
6090;BME280;3073;42.660;23.316;2023-02-08T06:45:48;96269.03;;;-3.63;100.00
6090;BME280;3073;42.660;23.316;2023-02-08T06:48:15;96273.34;;;-3.65;100.00
6090;BME280;3073;42.660;23.316;2023-02-08T06:50:41;96269.38;;;-4.16;100.00
6090;BME280;3073;42.660;23.316;2023-02-08T06:53:08;96265.72;;;-4.36;100.00
6090;BME280;3073;42.660;23.316;2023-02-08T06:55:35;96274.38;;;-4.29;100.00
6090;BME280;3073;42.660;23.316;2023-02-08T06:58:04;96272.78;;;-4.17;100.00
6090;BME280;3073;42.660;23.316;2023-02-08T07:00:31;96274.66;;;-4.08;100.00
6090;BME280;3073;42.660;23.316;2023-02-08T07:02:58;96287.59;;;-3.90;100.00
6090;BME280;3073;42.660;23.316;2023-02-08T07:05:26;96281.75;;;-3.78;100.00
6090;BME280;3073;42.660;23.316;2023-02-08T07:07:52;96279.44;;;-3.69;100.00
6090;BME280;3073;42.660;23.316;2023-02-08T07:10:19;96276.91;;;-3.92;100.00
6090;BME280;3073;42.660;23.316;2023-02-08T07:12:46;96284.00;;;-3.63;100.00
6090;BME280;3073;42.660;23.316;2023-02-08T07:15:15;96279.69;;;-3.37;100.00
6090;BME280;3073;42.660;23.316;2023-02-08T07:17:43;96290.28;;;-2.64;100.00
6090;BME280;3073;42.660;23.316;2023-02-08T07:20:10;96294.63;;;-2.21;100.00
6090;BME280;3073;42.660;23.316;2023-02-08T07:22:38;96292.88;;;-1.76;100.00
6090;BME280;3073;42.660;23.316;2023-02-08T07:25:06;96299.00;;;-1.69;100.00
6090;BME280;3073;42.660;23.316;2023-02-08T07:27:35;96301.31;;;-1.99;100.00
6090;BME280;3073;42.660;23.316;2023-02-08T07:30:03;96308.88;;;-2.68;100.00
6090;BME280;3073;42.660;23.316;2023-02-08T07:32:31;96311.66;;;-2.37;100.00
6090;BME280;3073;42.660;23.316;2023-02-08T07:34:58;96310.53;;;-2.22;100.00
6090;BME280;3073;42.660;23.316;2023-02-08T07:37:25;96309.84;;;-2.35;100.00
6090;BME280;3073;42.660;23.316;2023-02-08T07:39:53;96312.22;;;-1.67;100.00
6090;BME280;3073;42.660;23.316;2023-02-08T07:42:20;96306.50;;;-1.15;99.67
6090;BME280;3073;42.660;23.316;2023-02-08T07:44:47;96310.94;;;-0.87;93.62
6090;BME280;3073;42.660;23.316;2023-02-08T07:47:15;96317.09;;;-0.49;90.65
6090;BME280;3073;42.660;23.316;2023-02-08T07:49:43;96323.31;;;-0.23;82.81
6090;BME280;3073;42.660;23.316;2023-02-08T07:52:10;96314.88;;;0.08;79.30
6090;BME280;3073;42.660;23.316;2023-02-08T07:54:37;96316.19;;;0.42;75.94
6090;BME280;3073;42.660;23.316;2023-02-08T07:57:04;96311.47;;;0.59;73.37
6090;BME280;3073;42.660;23.316;2023-02-08T07:59:31;96315.41;;;0.61;70.30
6090;BME280;3073;42.660;23.316;2023-02-08T08:01:57;96318.53;;;-1.41;77.86
6090;BME280;3073;42.660;23.316;2023-02-08T08:04:24;96312.75;;;-1.52;87.80
6090;BME280;3073;42.660;23.316;2023-02-08T08:06:53;96305.72;;;-1.59;90.08
6090;BME280;3073;42.660;23.316;2023-02-08T08:09:19;96314.25;;;-1.18;88.78
6090;BME280;3073;42.660;23.316;2023-02-08T08:11:46;96300.75;;;-1.06;83.05
6090;BME280;3073;42.660;23.316;2023-02-08T08:14:13;96305.66;;;-1.05;83.34
6090;BME280;3073;42.660;23.316;2023-02-08T08:16:40;96311.13;;;-0.37;79.66
6090;BME280;3073;42.660;23.316;2023-02-08T08:19:07;96297.81;;;-0.59;77.28
6090;BME280;3073;42.660;23.316;2023-02-08T08:21:34;96299.94;;;-0.54;78.16
6090;BME280;3073;42.660;23.316;2023-02-08T08:24:03;96307.16;;;0.30;73.30
6090;BME280;3073;42.660;23.316;2023-02-08T08:26:30;96294.53;;;0.51;69.96
6090;BME280;3073;42.660;23.316;2023-02-08T08:28:57;96303.78;;;1.37;67.38
6090;BME280;3073;42.660;23.316;2023-02-08T08:31:24;96309.88;;;0.58;66.55
6090;BME280;3073;42.660;23.316;2023-02-08T08:33:51;96309.66;;;0.30;66.49
6090;BME280;3073;42.660;23.316;2023-02-08T08:36:18;96303.78;;;1.37;64.46
6090;BME280;3073;42.660;23.316;2023-02-08T08:38:45;96301.56;;;1.80;63.17
6090;BME280;3073;42.660;23.316;2023-02-08T08:41:15;96301.69;;;2.70;62.01
6090;BME280;3073;42.660;23.316;2023-02-08T08:43:43;96310.41;;;3.11;60.21
6090;BME280;3073;42.660;23.316;2023-02-08T08:46:10;96312.19;;;3.88;57.52
6090;BME280;3073;42.660;23.316;2023-02-08T08:48:37;96315.06;;;4.27;55.03
6090;BME280;3073;42.660;23.316;2023-02-08T08:51:05;96318.34;;;4.19;55.06
6090;BME280;3073;42.660;23.316;2023-02-08T08:53:32;96321.03;;;4.67;53.56
6090;BME280;3073;42.660;23.316;2023-02-08T08:55:59;96320.44;;;4.82;52.24
6090;BME280;3073;42.660;23.316;2023-02-08T08:58:27;96325.81;;;4.79;52.61
6090;BME280;3073;42.660;23.316;2023-02-08T09:00:55;96320.47;;;4.90;52.88
6090;BME280;3073;42.660;23.316;2023-02-08T09:03:22;96323.81;;;4.90;52.67
6090;BME280;3073;42.660;23.316;2023-02-08T09:05:50;96325.69;;;5.04;51.70
6090;BME280;3073;42.660;23.316;2023-02-08T09:08:17;96329.56;;;4.58;51.62
6090;BME280;3073;42.660;23.316;2023-02-08T09:10:44;96331.38;;;4.90;51.48
6090;BME280;3073;42.660;23.316;2023-02-08T09:13:21;96336.28;;;5.00;50.72
6090;BME280;3073;42.660;23.316;2023-02-08T09:16:03;96333.09;;;3.72;51.07
6090;BME280;3073;42.660;23.316;2023-02-08T09:18:30;96336.03;;;2.89;53.38
6090;BME280;3073;42.660;23.316;2023-02-08T09:20:57;96343.97;;;3.29;54.15
6090;BME280;3073;42.660;23.316;2023-02-08T09:23:24;96335.13;;;4.28;52.91
6090;BME280;3073;42.660;23.316;2023-02-08T09:25:51;96333.56;;;4.01;51.57
6090;BME280;3073;42.660;23.316;2023-02-08T09:28:17;96339.72;;;2.49;53.58
6090;BME280;3073;42.660;23.316;2023-02-08T09:30:44;96334.88;;;3.01;53.21
6090;BME280;3073;42.660;23.316;2023-02-08T09:33:12;96345.28;;;2.53;53.72
6090;BME280;3073;42.660;23.316;2023-02-08T09:35:39;96344.25;;;1.63;55.81
6090;BME280;3073;42.660;23.316;2023-02-08T09:38:06;96348.53;;;1.33;57.18
6090;BME280;3073;42.660;23.316;2023-02-08T09:40:37;96342.81;;;0.24;58.86
6090;BME280;3073;42.660;23.316;2023-02-08T09:43:10;96344.91;;;-0.94;62.74
6090;BME280;3073;42.660;23.316;2023-02-08T09:45:44;96345.50;;;-1.56;65.15
6090;BME280;3073;42.660;23.316;2023-02-08T09:48:17;96336.44;;;-1.90;68.67
6090;BME280;3073;42.660;23.316;2023-02-08T09:50:50;96337.47;;;-1.92;72.15
6090;BME280;3073;42.660;23.316;2023-02-08T09:53:21;96340.72;;;-1.59;74.42
6090;BME280;3073;42.660;23.316;2023-02-08T09:55:53;96332.34;;;-0.62;73.24
6090;BME280;3073;42.660;23.316;2023-02-08T09:58:26;96339.06;;;-0.63;68.97
6090;BME280;3073;42.660;23.316;2023-02-08T10:00:54;96331.78;;;-0.45;68.20
6090;BME280;3073;42.660;23.316;2023-02-08T10:03:32;96327.84;;;0.13;66.46
6090;BME280;3073;42.660;23.316;2023-02-08T10:06:00;96333.41;;;0.57;64.63
6090;BME280;3073;42.660;23.316;2023-02-08T10:08:28;96328.41;;;0.76;63.84
6090;BME280;3073;42.660;23.316;2023-02-08T10:11:05;96322.56;;;0.66;62.95
6090;BME280;3073;42.660;23.316;2023-02-08T10:16:43;96316.66;;;2.72;57.48
6090;BME280;3073;42.660;23.316;2023-02-08T10:19:28;96320.34;;;3.30;54.71
6090;BME280;3073;42.660;23.316;2023-02-08T10:22:14;96311.03;;;2.60;56.03
6090;BME280;3073;42.660;23.316;2023-02-08T10:24:59;96322.63;;;2.71;55.47
6090;BME280;3073;42.660;23.316;2023-02-08T10:27:39;96324.22;;;2.27;55.80
6090;BME280;3073;42.660;23.316;2023-02-08T10:30:26;96321.94;;;1.02;56.17
6090;BME280;3073;42.660;23.316;2023-02-08T10:32:59;96328.69;;;-0.07;58.37
6090;BME280;3073;42.660;23.316;2023-02-08T10:35:30;96321.88;;;-0.46;60.48
6090;BME280;3073;42.660;23.316;2023-02-08T10:38:16;96320.53;;;0.00;61.12
6090;BME280;3073;42.660;23.316;2023-02-08T10:40:50;96327.03;;;0.43;59.41
6090;BME280;3073;42.660;23.316;2023-02-08T10:43:22;96324.03;;;0.87;59.35
6090;BME280;3073;42.660;23.316;2023-02-08T10:45:57;96314.81;;;2.19;57.47
6090;BME280;3073;42.660;23.316;2023-02-08T10:48:48;96318.22;;;2.55;55.30
6090;BME280;3073;42.660;23.316;2023-02-08T10:51:20;96320.19;;;1.41;55.21
6090;BME280;3073;42.660;23.316;2023-02-08T10:53:48;96324.56;;;-0.38;59.15
6090;BME280;3073;42.660;23.316;2023-02-08T10:56:37;96325.59;;;0.50;59.60
6090;BME280;3073;42.660;23.316;2023-02-08T10:59:20;96322.84;;;0.72;57.38
6090;BME280;3073;42.660;23.316;2023-02-08T11:01:51;96325.81;;;0.47;57.42
6090;BME280;3073;42.660;23.316;2023-02-08T11:04:31;96327.16;;;0.51;58.41
6090;BME280;3073;42.660;23.316;2023-02-08T11:07:18;96318.53;;;-0.06;58.16
6090;BME280;3073;42.660;23.316;2023-02-08T11:09:45;96324.84;;;-0.11;59.72
6090;BME280;3073;42.660;23.316;2023-02-08T11:12:18;96327.97;;;0.12;60.61
6090;BME280;3073;42.660;23.316;2023-02-08T11:14:52;96330.31;;;-0.68;59.91
6090;BME280;3073;42.660;23.316;2023-02-08T11:17:25;96329.94;;;-0.43;60.25
6090;BME280;3073;42.660;23.316;2023-02-08T11:19:53;96328.19;;;-0.01;60.12
6090;BME280;3073;42.660;23.316;2023-02-08T11:22:23;96333.66;;;-0.17;62.44
6090;BME280;3073;42.660;23.316;2023-02-08T11:24:57;96324.31;;;-0.15;66.26
6090;BME280;3073;42.660;23.316;2023-02-08T11:27:32;96321.56;;;-0.32;66.59
6090;BME280;3073;42.660;23.316;2023-02-08T11:30:22;96334.25;;;-0.34;70.58
6090;BME280;3073;42.660;23.316;2023-02-08T11:33:14;96331.03;;;-0.36;70.35
6090;BME280;3073;42.660;23.316;2023-02-08T11:38:37;96336.41;;;-0.20;72.81
6090;BME280;3073;42.660;23.316;2023-02-08T11:41:14;96331.28;;;-0.18;73.07
6090;BME280;3073;42.660;23.316;2023-02-08T11:43:42;96337.03;;;-0.27;73.68
6090;BME280;3073;42.660;23.316;2023-02-08T11:46:09;96336.59;;;-0.32;74.52
6090;BME280;3073;42.660;23.316;2023-02-08T11:48:41;96336.50;;;-0.31;73.55
6090;BME280;3073;42.660;23.316;2023-02-08T11:51:09;96331.03;;;-0.36;72.76
6090;BME280;3073;42.660;23.316;2023-02-08T11:53:45;96331.19;;;-0.58;75.36
6090;BME280;3073;42.660;23.316;2023-02-08T11:56:17;96330.63;;;-0.62;75.13
6090;BME280;3073;42.660;23.316;2023-02-08T11:58:59;96333.69;;;-0.58;71.44
6090;BME280;3073;42.660;23.316;2023-02-08T12:01:28;96334.50;;;-0.58;72.02
6090;BME280;3073;42.660;23.316;2023-02-08T12:03:58;96337.41;;;-0.53;72.91
6090;BME280;3073;42.660;23.316;2023-02-08T12:06:49;96342.25;;;-0.61;74.14
6090;BME280;3073;42.660;23.316;2023-02-08T12:09:32;96341.06;;;-0.57;73.95
6090;BME280;3073;42.660;23.316;2023-02-08T12:12:10;96341.88;;;-0.56;76.77
6090;BME280;3073;42.660;23.316;2023-02-08T12:14:56;96342.66;;;-0.56;76.74
6090;BME280;3073;42.660;23.316;2023-02-08T12:17:50;96340.22;;;-0.46;77.11
6090;BME280;3073;42.660;23.316;2023-02-08T12:20:39;96333.81;;;-0.80;75.48
6090;BME280;3073;42.660;23.316;2023-02-08T12:23:19;96333.00;;;-0.81;74.22
6090;BME280;3073;42.660;23.316;2023-02-08T12:25:59;96327.56;;;-0.65;74.16
6090;BME280;3073;42.660;23.316;2023-02-08T12:28:32;96326.34;;;-0.71;73.98
6090;BME280;3073;42.660;23.316;2023-02-08T12:31:10;96323.47;;;-0.66;75.07
6090;BME280;3073;42.660;23.316;2023-02-08T12:33:46;96330.50;;;-0.81;72.59
6090;BME280;3073;42.660;23.316;2023-02-08T12:36:33;96328.69;;;-0.90;72.83
6090;BME280;3073;42.660;23.316;2023-02-08T12:39:23;96328.09;;;-0.82;73.63
6090;BME280;3073;42.660;23.316;2023-02-08T12:42:31;96332.94;;;-0.90;76.02
6090;BME280;3073;42.660;23.316;2023-02-08T12:45:23;96327.66;;;-1.19;71.79
6090;BME280;3073;42.660;23.316;2023-02-08T12:48:05;96331.59;;;-0.94;71.99
6090;BME280;3073;42.660;23.316;2023-02-08T12:50:40;96335.50;;;-1.13;70.19
6090;BME280;3073;42.660;23.316;2023-02-08T12:53:20;96339.28;;;-1.18;69.20
6090;BME280;3073;42.660;23.316;2023-02-08T12:55:51;96341.03;;;-0.98;68.09
6090;BME280;3073;42.660;23.316;2023-02-08T12:58:26;96345.50;;;-1.01;68.21
6090;BME280;3073;42.660;23.316;2023-02-08T13:00:56;96344.78;;;-0.92;68.63
6090;BME280;3073;42.660;23.316;2023-02-08T13:03:31;96347.50;;;-0.95;66.34
6090;BME280;3073;42.660;23.316;2023-02-08T13:06:03;96354.94;;;-1.05;66.84
6090;BME280;3073;42.660;23.316;2023-02-08T13:08:38;96345.00;;;-0.95;67.59
6090;BME280;3073;42.660;23.316;2023-02-08T13:11:10;96361.16;;;-0.88;68.31
6090;BME280;3073;42.660;23.316;2023-02-08T13:13:43;96368.31;;;-0.84;67.75
6090;BME280;3073;42.660;23.316;2023-02-08T13:16:14;96367.88;;;-0.89;67.65
6090;BME280;3073;42.660;23.316;2023-02-08T13:18:49;96364.94;;;-0.73;65.50
6090;BME280;3073;42.660;23.316;2023-02-08T13:21:23;96369.97;;;-0.73;64.72
6090;BME280;3073;42.660;23.316;2023-02-08T13:23:52;96365.94;;;-0.85;63.10
6090;BME280;3073;42.660;23.316;2023-02-08T13:26:21;96359.75;;;-0.81;64.02
6090;BME280;3073;42.660;23.316;2023-02-08T13:28:57;96372.47;;;-0.94;63.81
6090;BME280;3073;42.660;23.316;2023-02-08T13:31:26;96364.72;;;-1.02;62.04
6090;BME280;3073;42.660;23.316;2023-02-08T13:33:58;96369.56;;;-0.89;63.55